createdAt,value
2022-10-01T00:00:51.285Z,15.23
2022-10-01T00:03:18.354Z,15.20
2022-10-01T00:05:45.237Z,15.16
2022-10-01T00:08:14.477Z,15.14
2022-10-01T00:10:42.550Z,15.11
2022-10-01T00:13:10.439Z,15.06
2022-10-01T00:15:40.989Z,15.02
2022-10-01T00:18:10.612Z,14.96
2022-10-01T00:20:43.875Z,14.88
2022-10-01T00:23:11.617Z,14.81
2022-10-01T00:25:38.971Z,14.76
2022-10-01T00:28:05.843Z,14.73
2022-10-01T00:30:35.222Z,14.69
2022-10-01T00:33:04.161Z,14.65
2022-10-01T00:35:31.084Z,14.63
2022-10-01T00:37:58.017Z,14.61
2022-10-01T00:40:24.858Z,14.57
2022-10-01T00:42:51.689Z,14.49
2022-10-01T00:45:18.649Z,14.45
2022-10-01T00:47:51.923Z,14.38
2022-10-01T00:50:49.183Z,14.31
2022-10-01T00:53:16.025Z,14.24
2022-10-01T00:55:47.975Z,14.17
2022-10-01T00:58:15.315Z,14.09
2022-10-01T01:00:42.243Z,14.05
2022-10-01T01:03:09.396Z,13.99
2022-10-01T01:05:36.207Z,13.92
2022-10-01T01:08:03.313Z,13.86
2022-10-01T01:10:34.982Z,13.79
2022-10-01T01:13:19.740Z,13.74
2022-10-01T01:15:55.510Z,13.69
2022-10-01T01:18:46.092Z,13.66
2022-10-01T01:21:20.065Z,13.62
2022-10-01T01:24:17.265Z,13.56
2022-10-01T01:27:00.206Z,13.49
2022-10-01T01:29:43.320Z,13.46
2022-10-01T01:32:18.326Z,13.44
2022-10-01T01:34:46.889Z,13.40
2022-10-01T01:37:15.361Z,13.35
2022-10-01T01:39:44.157Z,13.31
2022-10-01T01:42:16.307Z,13.27
2022-10-01T01:44:44.598Z,13.24
2022-10-01T01:47:11.398Z,13.22
2022-10-01T01:49:39.488Z,13.19
2022-10-01T01:52:13.580Z,13.16
2022-10-01T01:54:40.588Z,13.15
2022-10-01T01:57:07.560Z,13.17
2022-10-01T01:59:35.407Z,13.17
2022-10-01T02:02:02.515Z,13.14
2022-10-01T02:04:33.703Z,13.09
2022-10-01T02:07:08.488Z,13.05
2022-10-01T02:09:35.265Z,12.99
2022-10-01T02:12:20.862Z,12.95
2022-10-01T02:14:47.633Z,12.91
2022-10-01T02:17:24.986Z,12.88
2022-10-01T02:20:15.591Z,12.85
2022-10-01T02:22:45.612Z,12.83
2022-10-01T02:25:12.417Z,12.81
2022-10-01T02:27:48.702Z,12.82
2022-10-01T02:30:15.564Z,12.83
2022-10-01T02:32:44.434Z,12.82
2022-10-01T02:35:12.742Z,12.83
2022-10-01T02:37:40.591Z,12.86
2022-10-01T02:40:08.593Z,12.89
2022-10-01T02:42:35.386Z,12.92
2022-10-01T02:45:02.578Z,12.93
2022-10-01T02:47:35.041Z,12.93
2022-10-01T02:50:02.194Z,12.91
2022-10-01T02:52:34.427Z,12.86
2022-10-01T02:55:06.057Z,12.85
2022-10-01T02:57:32.971Z,12.87
2022-10-01T03:00:01.523Z,12.88
2022-10-01T03:02:29.251Z,12.88
2022-10-01T03:04:57.259Z,12.91
2022-10-01T03:07:25.167Z,12.93
2022-10-01T03:09:52.117Z,12.93
2022-10-01T03:12:18.960Z,12.93
2022-10-01T03:14:45.929Z,12.94
2022-10-01T03:17:13.084Z,12.96
2022-10-01T03:19:40.294Z,12.99
2022-10-01T03:22:11.722Z,13.03
2022-10-01T03:24:38.434Z,13.05
2022-10-01T03:27:05.150Z,13.09
2022-10-01T03:29:31.808Z,13.12
2022-10-01T03:31:58.493Z,13.15
2022-10-01T03:34:25.333Z,13.18
2022-10-01T03:36:52.802Z,13.19
2022-10-01T03:39:19.633Z,13.20
2022-10-01T03:41:46.350Z,13.22
2022-10-01T03:44:13.192Z,13.24
2022-10-01T03:46:39.891Z,13.24
2022-10-01T03:49:06.618Z,13.26
2022-10-01T03:51:33.734Z,13.26
2022-10-01T03:54:00.662Z,13.25
2022-10-01T03:56:27.483Z,13.25
2022-10-01T03:58:54.549Z,13.24
2022-10-01T04:01:21.570Z,13.22
2022-10-01T04:03:49.359Z,13.18
2022-10-01T04:06:16.366Z,13.15
2022-10-01T04:08:43.123Z,13.12
2022-10-01T04:11:09.905Z,13.10
2022-10-01T04:13:36.574Z,13.09
2022-10-01T04:16:04.077Z,13.09
2022-10-01T04:18:31.154Z,13.09
2022-10-01T04:20:58.099Z,13.09
2022-10-01T04:23:25.289Z,13.08
2022-10-01T04:25:52.069Z,13.08
2022-10-01T04:28:18.874Z,13.09
2022-10-01T04:30:45.998Z,13.10
2022-10-01T04:33:14.760Z,13.14
2022-10-01T04:35:42.122Z,13.16
2022-10-01T04:38:17.944Z,13.20
2022-10-01T04:40:44.619Z,13.23
2022-10-01T04:43:11.359Z,13.26
2022-10-01T04:45:38.273Z,13.29
2022-10-01T04:48:05.294Z,13.31
2022-10-01T04:50:32.316Z,13.34
2022-10-01T04:52:59.015Z,13.37
2022-10-01T04:55:25.698Z,13.39
2022-10-01T04:57:52.370Z,13.41
2022-10-01T05:00:21.790Z,13.44
2022-10-01T05:02:49.446Z,13.46
2022-10-01T05:05:16.781Z,13.49
2022-10-01T05:07:43.531Z,13.50
2022-10-01T05:10:18.262Z,13.51
2022-10-01T05:12:46.297Z,13.54
2022-10-01T05:15:13.166Z,13.57
2022-10-01T05:17:39.834Z,13.60
2022-10-01T05:20:07.487Z,13.65
2022-10-01T05:22:34.235Z,13.70
2022-10-01T05:25:00.924Z,13.74
2022-10-01T05:27:27.991Z,13.79
2022-10-01T05:29:54.693Z,13.85
2022-10-01T05:32:21.430Z,13.90
2022-10-01T05:34:53.293Z,13.96
2022-10-01T05:37:20.523Z,14.02
2022-10-01T05:39:47.423Z,14.07
2022-10-01T05:42:14.075Z,14.14
2022-10-01T05:47:16.443Z,14.30
2022-10-01T05:49:44.688Z,14.35
2022-10-01T05:52:11.714Z,14.44
2022-10-01T05:54:38.464Z,14.51
2022-10-01T05:57:05.922Z,14.59
2022-10-01T05:59:32.590Z,14.65
2022-10-01T06:01:59.392Z,14.71
2022-10-01T06:04:26.384Z,14.77
2022-10-01T06:06:53.550Z,14.85
2022-10-01T06:09:20.213Z,14.93
2022-10-01T06:11:47.192Z,15.00
2022-10-01T06:14:13.854Z,15.06
2022-10-01T06:16:40.592Z,15.13
2022-10-01T06:19:07.314Z,15.20
2022-10-01T06:21:34.163Z,15.28
2022-10-01T06:24:01.285Z,15.34
2022-10-01T06:26:28.587Z,15.40
2022-10-01T06:28:55.243Z,15.45
2022-10-01T06:31:22.095Z,15.51
2022-10-01T06:33:48.961Z,15.58
2022-10-01T06:36:15.619Z,15.63
2022-10-01T06:38:43.061Z,15.70
2022-10-01T06:41:09.847Z,15.76
2022-10-01T06:43:36.545Z,15.83
2022-10-01T06:46:04.124Z,15.91
2022-10-01T06:48:32.438Z,15.98
2022-10-01T06:50:59.286Z,16.04
2022-10-01T06:53:27.403Z,16.09
2022-10-01T06:55:54.137Z,16.15
2022-10-01T06:58:21.862Z,16.21
2022-10-01T07:00:48.858Z,16.26
2022-10-01T07:03:20.828Z,16.33
2022-10-01T07:05:48.042Z,16.39
2022-10-01T07:08:14.740Z,16.44
2022-10-01T07:10:41.796Z,16.49
2022-10-01T07:13:10.005Z,16.57
2022-10-01T07:15:36.943Z,16.65
2022-10-01T07:18:03.634Z,16.73
2022-10-01T07:20:33.223Z,16.81
2022-10-01T07:23:00.239Z,16.90
2022-10-01T07:25:26.994Z,17.00
2022-10-01T07:27:55.840Z,17.08
2022-10-01T07:30:23.954Z,17.15
2022-10-01T07:32:50.739Z,17.19
2022-10-01T07:35:17.998Z,17.22
2022-10-01T07:37:44.664Z,17.24
2022-10-01T07:40:11.352Z,17.28
2022-10-01T07:42:38.511Z,17.35
2022-10-01T07:45:06.763Z,17.43
2022-10-01T07:47:33.459Z,17.52
2022-10-01T07:50:00.166Z,17.60
2022-10-01T07:52:26.843Z,17.65
2022-10-01T07:54:53.595Z,17.71
2022-10-01T07:57:20.246Z,17.75
2022-10-01T07:59:46.943Z,17.77
2022-10-01T08:02:17.768Z,17.77
2022-10-01T08:05:03.059Z,17.77
2022-10-01T08:07:32.966Z,17.78
2022-10-01T08:09:59.685Z,17.79
2022-10-01T08:12:30.423Z,17.83
2022-10-01T08:14:57.206Z,17.89
2022-10-01T08:17:28.540Z,17.98
2022-10-01T08:19:56.083Z,18.07
2022-10-01T08:22:22.749Z,18.16
2022-10-01T08:24:49.416Z,18.22
2022-10-01T08:27:16.196Z,18.25
2022-10-01T08:29:43.313Z,18.26
2022-10-01T08:32:10.705Z,18.29
2022-10-01T08:34:37.597Z,18.30
2022-10-01T08:37:04.278Z,18.31
2022-10-01T08:39:30.992Z,18.33
2022-10-01T08:42:05.696Z,18.36
2022-10-01T08:44:43.324Z,18.41
2022-10-01T08:47:22.820Z,18.47
2022-10-01T08:49:52.040Z,18.51
2022-10-01T08:52:22.701Z,18.56
2022-10-01T08:54:55.086Z,18.61
2022-10-01T08:57:24.202Z,18.68
2022-10-01T09:00:47.371Z,18.74
2022-10-01T09:03:32.690Z,18.78
2022-10-01T09:06:25.598Z,18.78
2022-10-01T09:09:10.513Z,18.77
2022-10-01T09:12:12.140Z,18.74
2022-10-01T09:14:45.458Z,18.70
2022-10-01T09:17:30.904Z,18.67
2022-10-01T09:20:06.675Z,18.67
2022-10-01T09:22:52.066Z,18.69
2022-10-01T09:25:23.534Z,18.74
2022-10-01T09:28:29.514Z,18.76
2022-10-01T09:31:16.616Z,18.77
2022-10-01T09:33:46.866Z,18.75
2022-10-01T09:36:25.321Z,18.73
2022-10-01T09:39:13.654Z,18.73
2022-10-01T09:41:40.387Z,18.77
2022-10-01T09:44:15.656Z,18.82
2022-10-01T09:46:46.177Z,18.89
2022-10-01T09:49:34.109Z,18.94
2022-10-01T09:52:34.649Z,19.00
2022-10-01T09:55:02.867Z,19.06
2022-10-01T09:57:33.737Z,19.10
2022-10-01T10:00:17.430Z,19.13
2022-10-01T10:02:49.613Z,19.15
2022-10-01T10:05:17.657Z,19.15
2022-10-01T10:08:03.563Z,19.15
2022-10-01T10:10:39.492Z,19.15
2022-10-01T10:13:10.139Z,19.17
2022-10-01T10:15:49.571Z,19.19
2022-10-01T10:18:21.578Z,19.22
2022-10-01T10:20:51.846Z,19.26
2022-10-01T10:23:20.504Z,19.30
2022-10-01T10:26:03.855Z,19.32
2022-10-01T10:28:43.602Z,19.34
2022-10-01T10:31:14.960Z,19.37
2022-10-01T10:34:02.322Z,19.38
2022-10-01T10:36:30.134Z,19.39
2022-10-01T10:38:56.984Z,19.39
2022-10-01T10:41:26.566Z,19.42
2022-10-01T10:43:59.205Z,19.45
2022-10-01T10:46:32.057Z,19.47
2022-10-01T10:49:03.890Z,19.49
2022-10-01T10:51:54.000Z,19.54
2022-10-01T10:54:37.576Z,19.58
2022-10-01T10:57:21.142Z,19.58
2022-10-01T11:00:00.977Z,19.57
2022-10-01T11:02:32.200Z,19.56
2022-10-01T11:05:01.767Z,19.55
2022-10-01T11:07:28.480Z,19.53
2022-10-01T11:10:32.537Z,19.53
2022-10-01T11:13:08.888Z,19.50
2022-10-01T11:15:43.417Z,19.47
2022-10-01T11:18:40.487Z,19.43
2022-10-01T11:21:13.722Z,19.39
2022-10-01T11:23:53.593Z,19.36
2022-10-01T11:26:32.259Z,19.33
2022-10-01T11:29:17.477Z,19.28
2022-10-01T11:31:50.428Z,19.23
2022-10-01T11:34:37.834Z,19.20
2022-10-01T11:37:28.469Z,19.16
2022-10-01T11:39:56.186Z,19.10
2022-10-01T11:42:27.733Z,19.04
2022-10-01T11:45:00.827Z,19.00
2022-10-01T11:47:36.827Z,18.96
2022-10-01T11:50:13.596Z,18.93
2022-10-01T11:52:52.742Z,18.91
2022-10-01T11:55:53.699Z,18.89
2022-10-01T11:58:53.085Z,18.87
2022-10-01T12:01:36.697Z,18.85
2022-10-01T12:04:12.481Z,18.83
2022-10-01T12:06:55.564Z,18.81
2022-10-01T12:09:59.360Z,18.80
2022-10-01T12:12:31.637Z,18.78
2022-10-01T12:15:06.915Z,18.75
2022-10-01T12:17:36.995Z,18.74
2022-10-01T12:20:04.644Z,18.74
2022-10-01T12:22:36.051Z,18.72
2022-10-01T12:25:02.727Z,18.70
2022-10-01T12:27:50.734Z,18.69
2022-10-01T12:30:25.021Z,18.68
2022-10-01T12:33:25.240Z,18.67
2022-10-01T12:36:19.499Z,18.68
2022-10-01T12:39:07.610Z,18.68
2022-10-01T12:41:46.283Z,18.68
2022-10-01T12:44:57.815Z,18.67
2022-10-01T12:47:57.835Z,18.66
2022-10-01T12:50:35.351Z,18.67
2022-10-01T12:53:18.271Z,18.68
2022-10-01T12:55:58.078Z,18.69
2022-10-01T12:58:44.179Z,18.70
2022-10-01T13:01:17.250Z,18.71
2022-10-01T13:03:44.447Z,18.71
2022-10-01T13:06:26.287Z,18.71
2022-10-01T13:09:31.224Z,18.70
2022-10-01T13:12:19.195Z,18.68
2022-10-01T13:14:45.887Z,18.65
2022-10-01T13:17:19.820Z,18.63
2022-10-01T13:20:00.592Z,18.62
2022-10-01T13:22:36.275Z,18.60
2022-10-01T13:25:20.187Z,18.58
2022-10-01T13:28:08.500Z,18.57
2022-10-01T13:30:45.001Z,18.53
2022-10-01T13:33:28.905Z,18.50
2022-10-01T13:35:59.714Z,18.47
2022-10-01T13:38:38.339Z,18.45
2022-10-01T13:41:26.371Z,18.42
2022-10-01T13:44:23.022Z,18.41
2022-10-01T13:46:56.267Z,18.41
2022-10-01T13:49:28.059Z,18.39
2022-10-01T13:51:54.743Z,18.35
2022-10-01T13:54:24.569Z,18.31
2022-10-01T13:56:51.494Z,18.28
2022-10-01T13:59:35.820Z,18.26
2022-10-01T14:02:03.212Z,18.24
2022-10-01T14:04:38.102Z,18.21
2022-10-01T14:07:14.333Z,18.19
2022-10-01T14:09:43.973Z,18.16
2022-10-01T14:12:50.979Z,18.15
2022-10-01T14:15:38.361Z,18.14
2022-10-01T14:18:09.404Z,18.13
2022-10-01T14:21:02.359Z,18.14
2022-10-01T14:23:51.705Z,18.13
2022-10-01T14:26:24.569Z,18.11
2022-10-01T14:29:03.459Z,18.10
2022-10-01T14:31:36.604Z,18.09
2022-10-01T14:34:15.123Z,18.09
2022-10-01T14:36:45.530Z,18.08
2022-10-01T14:39:20.090Z,18.06
2022-10-01T14:41:48.059Z,18.02
2022-10-01T14:44:39.066Z,17.98
2022-10-01T14:47:22.639Z,17.93
2022-10-01T14:49:49.650Z,17.86
2022-10-01T14:52:27.495Z,17.80
2022-10-01T14:54:56.792Z,17.74
2022-10-01T14:57:30.429Z,17.69
2022-10-01T14:59:57.735Z,17.63
2022-10-01T15:02:25.335Z,17.60
2022-10-01T15:04:54.635Z,17.57
2022-10-01T15:07:21.494Z,17.53
2022-10-01T15:09:48.884Z,17.49
2022-10-01T15:12:16.786Z,17.45
2022-10-01T15:14:43.721Z,17.41
2022-10-01T15:17:24.962Z,17.38
2022-10-01T15:19:52.922Z,17.33
2022-10-01T15:22:22.819Z,17.29
2022-10-01T15:24:49.529Z,17.26
2022-10-01T15:27:18.975Z,17.23
2022-10-01T15:29:45.727Z,17.17
2022-10-01T15:32:17.607Z,17.11
2022-10-01T15:34:48.178Z,17.08
2022-10-01T15:37:24.663Z,17.05
2022-10-01T15:39:51.782Z,16.99
2022-10-01T15:42:32.866Z,16.95
2022-10-01T15:45:08.859Z,16.90
2022-10-01T15:47:37.384Z,16.85
2022-10-01T15:50:04.160Z,16.80
2022-10-01T15:52:50.547Z,16.77
2022-10-01T15:55:21.544Z,16.74
2022-10-01T15:57:57.144Z,16.70
2022-10-01T16:00:28.777Z,16.67
2022-10-01T16:02:56.012Z,16.64
2022-10-01T16:05:24.379Z,16.60
2022-10-01T16:07:54.583Z,16.59
2022-10-01T16:10:29.643Z,16.54
2022-10-01T16:12:56.421Z,16.48
2022-10-01T16:15:27.239Z,16.46
2022-10-01T16:17:55.563Z,16.44
2022-10-01T16:20:49.106Z,16.42
2022-10-01T16:23:36.215Z,16.38
2022-10-01T16:26:04.041Z,16.37
2022-10-01T16:28:34.499Z,16.37
2022-10-01T16:31:01.728Z,16.37
2022-10-01T16:33:28.563Z,16.35
2022-10-01T16:36:08.301Z,16.32
2022-10-01T16:38:34.993Z,16.30
2022-10-01T16:41:02.457Z,16.30
2022-10-01T16:43:29.168Z,16.28
2022-10-01T16:45:57.736Z,16.26
2022-10-01T16:48:24.599Z,16.24
2022-10-01T16:50:54.129Z,16.23
2022-10-01T16:53:21.053Z,16.23
2022-10-01T16:55:47.788Z,16.24
2022-10-01T16:58:14.839Z,16.24
2022-10-01T17:00:42.044Z,16.22
2022-10-01T17:03:15.028Z,16.20
2022-10-01T17:05:41.744Z,16.18
2022-10-01T17:08:11.503Z,16.17
2022-10-01T17:10:45.691Z,16.16
2022-10-01T17:13:12.754Z,16.13
2022-10-01T17:15:39.490Z,16.11
2022-10-01T17:18:06.257Z,16.09
2022-10-01T17:20:33.822Z,16.08
2022-10-01T17:23:00.632Z,16.08
2022-10-01T17:25:32.357Z,16.06
2022-10-01T17:27:59.748Z,16.05
2022-10-01T17:30:29.135Z,16.02
2022-10-01T17:32:56.905Z,16.00
2022-10-01T17:35:23.702Z,15.98
2022-10-01T17:37:50.356Z,15.95
2022-10-01T17:40:17.083Z,15.95
2022-10-01T17:42:43.829Z,15.94
2022-10-01T17:45:11.612Z,15.93
2022-10-01T17:47:43.959Z,15.91
2022-10-01T17:50:11.196Z,15.90
2022-10-01T17:52:37.952Z,15.87
2022-10-01T17:55:05.631Z,15.82
2022-10-01T17:57:32.377Z,15.77
2022-10-01T17:59:59.054Z,15.71
2022-10-01T18:04:32.629Z,15.68
2022-10-01T18:06:59.866Z,15.65
2022-10-01T18:09:26.592Z,15.65
2022-10-01T18:11:53.406Z,15.65
2022-10-01T18:14:20.237Z,15.65
2022-10-01T18:16:47.016Z,15.63
2022-10-01T18:22:01.535Z,15.58
2022-10-01T18:24:29.006Z,15.56
2022-10-01T18:26:56.031Z,15.53
2022-10-01T18:29:24.246Z,15.50
2022-10-01T18:31:56.079Z,15.46
2022-10-01T18:34:26.982Z,15.41
2022-10-01T18:36:56.913Z,15.37
2022-10-01T18:39:28.584Z,15.33
2022-10-01T18:41:56.173Z,15.30
2022-10-01T18:44:22.863Z,15.29
2022-10-01T18:46:49.678Z,15.28
2022-10-01T18:49:19.338Z,15.28
2022-10-01T18:52:10.492Z,15.28
2022-10-01T18:55:18.922Z,15.28
2022-10-01T18:58:03.021Z,15.28
2022-10-01T19:01:08.722Z,15.29
2022-10-01T19:04:22.182Z,15.29
2022-10-01T19:07:09.426Z,15.30
2022-10-01T19:10:20.961Z,15.30
2022-10-01T19:12:53.720Z,15.29
2022-10-01T19:15:34.500Z,15.29
2022-10-01T19:18:27.483Z,15.28
2022-10-01T19:21:07.347Z,15.28
2022-10-01T19:23:34.083Z,15.28
2022-10-01T19:26:23.858Z,15.29
2022-10-01T19:29:05.643Z,15.29
2022-10-01T19:31:43.983Z,15.29
2022-10-01T19:34:33.766Z,15.28
2022-10-01T19:37:27.992Z,15.27
2022-10-01T19:39:57.405Z,15.25
2022-10-01T19:42:27.238Z,15.23
2022-10-01T19:45:16.235Z,15.22
2022-10-01T19:48:35.252Z,15.20
2022-10-01T19:51:07.742Z,15.19
2022-10-01T19:53:35.173Z,15.17
2022-10-01T19:56:01.989Z,15.16
2022-10-01T19:58:30.442Z,15.16
2022-10-01T20:00:58.852Z,15.15
2022-10-01T20:03:39.646Z,15.14
2022-10-01T20:06:13.820Z,15.14
2022-10-01T20:08:40.497Z,15.15
2022-10-01T20:11:19.286Z,15.16
2022-10-01T20:13:52.750Z,15.17
2022-10-01T20:16:40.742Z,15.17
2022-10-01T20:19:24.804Z,15.17
2022-10-01T20:22:10.793Z,15.17
2022-10-01T20:24:56.623Z,15.16
2022-10-01T20:27:32.410Z,15.15
2022-10-01T20:30:04.941Z,15.12
2022-10-01T20:32:36.524Z,15.10
2022-10-01T20:35:09.277Z,15.10
2022-10-01T20:38:15.208Z,15.09
2022-10-01T20:40:50.876Z,15.07
2022-10-01T20:43:28.741Z,15.04
2022-10-01T20:45:55.523Z,15.01
2022-10-01T20:48:25.735Z,14.99
2022-10-01T20:50:54.143Z,14.98
2022-10-01T20:53:48.177Z,14.97
2022-10-01T20:56:18.899Z,14.95
2022-10-01T20:58:52.770Z,14.92
2022-10-01T21:01:21.531Z,14.87
2022-10-01T21:03:52.125Z,14.80
2022-10-01T21:06:21.831Z,14.74
2022-10-01T21:08:56.684Z,14.68
2022-10-01T21:11:26.466Z,14.63
2022-10-01T21:14:25.470Z,14.59
2022-10-01T21:17:08.259Z,14.55
2022-10-01T21:19:41.761Z,14.53
2022-10-01T21:22:14.453Z,14.52
2022-10-01T21:24:57.287Z,14.53
2022-10-01T21:27:36.235Z,14.55
2022-10-01T21:30:12.810Z,14.56
2022-10-01T21:33:10.833Z,14.55
2022-10-01T21:36:02.089Z,14.55
2022-10-01T21:38:37.902Z,14.54
2022-10-01T21:41:13.134Z,14.53
2022-10-01T21:44:01.555Z,14.52
2022-10-01T21:46:38.014Z,14.50
2022-10-01T21:49:09.717Z,14.51
2022-10-01T21:51:45.247Z,14.51
2022-10-01T21:54:17.355Z,14.53
2022-10-01T21:57:10.258Z,14.55
2022-10-01T21:59:54.458Z,14.56
2022-10-01T22:02:27.031Z,14.58
2022-10-01T22:04:56.550Z,14.60
2022-10-01T22:07:32.634Z,14.61
2022-10-01T22:10:02.903Z,14.62
2022-10-01T22:12:30.736Z,14.61
2022-10-01T22:14:57.390Z,14.58
2022-10-01T22:17:26.466Z,14.57
2022-10-01T22:19:53.763Z,14.56
2022-10-01T22:22:29.974Z,14.54
2022-10-01T22:25:00.510Z,14.54
2022-10-01T22:27:33.272Z,14.54
2022-10-01T22:30:03.969Z,14.52
2022-10-01T22:32:33.176Z,14.49
2022-10-01T22:35:02.792Z,14.48
2022-10-01T22:37:42.374Z,14.47
2022-10-01T22:40:16.792Z,14.45
2022-10-01T22:42:53.240Z,14.42
2022-10-01T22:45:19.963Z,14.41
2022-10-01T22:48:03.548Z,14.39
2022-10-01T22:50:33.162Z,14.36
2022-10-01T22:53:13.990Z,14.34
2022-10-01T22:55:54.602Z,14.33
2022-10-01T22:58:43.556Z,14.32
2022-10-01T23:01:31.638Z,14.33
2022-10-01T23:04:21.417Z,14.31
2022-10-01T23:07:17.557Z,14.31
2022-10-01T23:10:21.771Z,14.32
2022-10-01T23:13:03.973Z,14.34
2022-10-01T23:15:45.732Z,14.34
2022-10-01T23:18:45.108Z,14.35
2022-10-01T23:21:27.610Z,14.36
2022-10-01T23:24:02.556Z,14.37
2022-10-01T23:26:46.989Z,14.36
2022-10-01T23:29:35.483Z,14.37
2022-10-01T23:32:06.221Z,14.38
2022-10-01T23:35:00.326Z,14.38
2022-10-01T23:37:37.654Z,14.40
2022-10-01T23:40:07.743Z,14.40
2022-10-01T23:42:58.418Z,14.40
2022-10-01T23:45:30.337Z,14.39
2022-10-01T23:48:02.905Z,14.38
2022-10-01T23:50:33.322Z,14.36
2022-10-01T23:53:23.412Z,14.35
2022-10-01T23:56:19.935Z,14.34
2022-10-01T23:59:27.530Z,14.31
